Time;durP1;ratioP1;P1;durP2;ratioP2;P2;SDS_P1;SDS_P2;PMS_P1;PMS_P2;Temp;Humidity;BMP_temperature;BMP_pressure;BME280_temperature;BME280_humidity;BME280_pressure;Samples;Min_cycle;Max_cycle;Signal;HPM_P1;HPM_P2
2024/01/22 00:00:47;;;;;;;;;;;;;;;1.32;79.23;101055.47;4943691;28;19930;-81
2024/01/22 00:03:14;;;;;;;;;;;;;;;1.35;78.31;101055.56;4942261;28;19927;-82
2024/01/22 00:05:40;;;;;;;;;;;;;;;1.52;77.66;101052.63;4947757;28;19992;-82
2024/01/22 00:08:07;;;;;;;;;;;;;;;1.43;77.81;101049.75;4937090;28;19933;-81
2024/01/22 00:10:34;;;;;;;;;;;;;;;1.36;77.68;101041.81;4944219;28;19926;-82
2024/01/22 00:13:00;;;;;;;;;;;;;;;1.28;77.94;101030.31;4924856;29;19926;-80
2024/01/22 00:15:27;;;;;;;;;;;;;;;1.41;77.36;101041.94;4946671;28;19930;-80
2024/01/22 00:17:54;;;;;;;;;;;;;;;1.28;77.95;101043.25;4940736;28;19926;-81
2024/01/22 00:20:22;;;;;;;;;;;;;;;1.32;78.17;101039.06;4945127;28;19937;-81
2024/01/22 00:22:49;;;;;;;;;;;;;;;1.21;78.01;101046.47;4942010;28;19927;-81
2024/01/22 00:25:16;;;;;;;;;;;;;;;1.31;77.87;101037.31;4943538;28;19934;-82
2024/01/22 00:27:42;;;;;;;;;;;;;;;1.19;78.09;101028.31;4928876;29;19933;-81
2024/01/22 00:30:10;;;;;;;;;;;;;;;1.04;78.32;101027.81;4949347;28;19927;-82
2024/01/22 00:32:37;;;;;;;;;;;;;;;1.18;78.46;101026.56;4949526;28;19970;-82
2024/01/22 00:35:04;;;;;;;;;;;;;;;1.03;78.98;101020.91;4932852;29;19994;-80
2024/01/22 00:37:31;;;;;;;;;;;;;;;0.98;78.74;101012.09;4943732;28;19945;-81
2024/01/22 00:39:58;;;;;;;;;;;;;;;0.98;78.92;101012.97;4931864;28;19942;-81
2024/01/22 00:42:24;;;;;;;;;;;;;;;1.04;78.70;101007.13;4945515;28;19973;-81
2024/01/22 00:44:51;;;;;;;;;;;;;;;0.83;79.48;100999.56;4948378;28;19935;-81
2024/01/22 00:47:18;;;;;;;;;;;;;;;0.83;79.52;100997.84;4943008;28;19930;-80
2024/01/22 00:49:44;;;;;;;;;;;;;;;0.78;79.96;100989.06;4949860;28;19997;-81
2024/01/22 00:52:11;;;;;;;;;;;;;;;0.72;79.97;100988.84;4942204;29;19938;-82
2024/01/22 00:54:38;;;;;;;;;;;;;;;0.79;80.21;100985.63;4955367;28;19926;-80
2024/01/22 00:57:04;;;;;;;;;;;;;;;0.86;80.00;100972.09;4953339;28;19926;-82
2024/01/22 00:59:31;;;;;;;;;;;;;;;0.95;79.91;100981.84;4940699;28;20382;-82
2024/01/22 01:01:58;;;;;;;;;;;;;;;1.07;79.11;100970.16;4954586;28;19927;-81
2024/01/22 01:04:24;;;;;;;;;;;;;;;1.05;79.04;100959.78;4945372;28;19941;-82
2024/01/22 01:06:51;;;;;;;;;;;;;;;1.04;79.08;100956.31;4947201;28;19958;-82
2024/01/22 01:09:18;;;;;;;;;;;;;;;0.97;79.22;100949.19;4942243;28;19932;-82
2024/01/22 01:11:44;;;;;;;;;;;;;;;1.12;78.95;100955.69;4942387;28;19994;-82
2024/01/22 01:14:11;;;;;;;;;;;;;;;1.09;79.10;100956.47;4955751;28;20014;-81
2024/01/22 01:16:37;;;;;;;;;;;;;;;1.07;79.03;100958.09;4949560;28;19927;-82
2024/01/22 01:19:04;;;;;;;;;;;;;;;0.99;79.34;100963.03;4948439;28;20313;-80
2024/01/22 01:21:31;;;;;;;;;;;;;;;0.95;79.60;100968.06;4959192;28;19941;-83
2024/01/22 01:23:57;;;;;;;;;;;;;;;0.98;79.58;100961.28;4959161;28;19927;-82
2024/01/22 01:26:24;;;;;;;;;;;;;;;0.92;79.94;100971.41;4948558;28;19979;-81
2024/01/22 01:28:51;;;;;;;;;;;;;;;0.91;80.13;100969.66;4936352;28;19998;-81
2024/01/22 01:31:20;;;;;;;;;;;;;;;0.84;80.50;100975.44;4945433;28;19954;-82
2024/01/22 01:33:47;;;;;;;;;;;;;;;0.84;80.57;100975.44;4938883;29;19926;-82
2024/01/22 01:36:14;;;;;;;;;;;;;;;0.81;80.64;100962.44;4940167;28;20003;-82
2024/01/22 01:38:41;;;;;;;;;;;;;;;0.77;80.90;100956.31;4928929;28;19968;-82
2024/01/22 01:41:08;;;;;;;;;;;;;;;0.73;81.12;100961.31;4946370;28;20040;-82
2024/01/22 01:43:34;;;;;;;;;;;;;;;0.74;81.38;100956.19;4946024;28;19926;-81
2024/01/22 01:46:01;;;;;;;;;;;;;;;0.77;81.12;100948.53;4933726;29;19927;-81
2024/01/22 01:48:28;;;;;;;;;;;;;;;0.78;81.17;100942.56;4954285;28;19927;-82
2024/01/22 01:50:55;;;;;;;;;;;;;;;0.82;80.96;100934.06;4945826;28;19934;-81
2024/01/22 01:53:22;;;;;;;;;;;;;;;0.91;80.96;100936.06;4916474;28;19934;-83
2024/01/22 01:55:49;;;;;;;;;;;;;;;0.95;80.93;100932.75;4944538;28;19927;-83
2024/01/22 01:58:17;;;;;;;;;;;;;;;0.99;80.61;100924.28;4940578;28;19942;-81
2024/01/22 02:00:44;;;;;;;;;;;;;;;0.95;80.98;100922.41;4928403;29;19950;-82
2024/01/22 02:03:11;;;;;;;;;;;;;;;0.89;81.24;100914.47;4941008;28;19993;-82
2024/01/22 02:05:38;;;;;;;;;;;;;;;1.00;81.17;100905.34;4944901;28;19933;-81
2024/01/22 02:08:06;;;;;;;;;;;;;;;1.05;81.25;100889.97;4934126;29;19926;-81
2024/01/22 02:10:32;;;;;;;;;;;;;;;1.01;81.26;100885.53;4954984;28;19927;-82
2024/01/22 02:13:01;;;;;;;;;;;;;;;1.15;81.33;100885.97;4943247;28;19938;-81
2024/01/22 02:15:28;;;;;;;;;;;;;;;1.14;81.59;100876.47;4943603;28;19926;-82
2024/01/22 02:17:59;;;;;;;;;;;;;;;1.31;81.02;100870.09;4949406;28;19926;-82
2024/01/22 02:20:26;;;;;;;;;;;;;;;1.35;80.58;100868.47;4951351;28;19927;-81
2024/01/22 02:22:53;;;;;;;;;;;;;;;1.33;80.65;100871.03;4943727;28;19926;-81
2024/01/22 02:25:19;;;;;;;;;;;;;;;1.47;79.97;100862.78;4943731;28;19926;-82
2024/01/22 02:27:46;;;;;;;;;;;;;;;1.59;79.38;100862.25;4946529;28;19941;-81
2024/01/22 02:30:13;;;;;;;;;;;;;;;1.56;79.28;100863.94;4928813;28;19986;-82
2024/01/22 02:32:40;;;;;;;;;;;;;;;1.69;78.73;100854.78;4945132;28;19986;-83
2024/01/22 02:35:06;;;;;;;;;;;;;;;1.60;78.64;100846.75;4941993;28;19933;-81
2024/01/22 02:37:33;;;;;;;;;;;;;;;1.63;78.26;100833.03;4944849;28;19945;-81
2024/01/22 02:40:00;;;;;;;;;;;;;;;1.72;77.72;100849.72;4943088;28;19945;-82
2024/01/22 02:42:26;;;;;;;;;;;;;;;1.71;77.62;100832.41;4941415;28;19927;-80
2024/01/22 02:44:53;;;;;;;;;;;;;;;1.66;77.69;100828.81;4946675;28;19941;-82
2024/01/22 02:47:19;;;;;;;;;;;;;;;1.69;77.87;100823.72;4942398;28;20009;-80
2024/01/22 02:49:46;;;;;;;;;;;;;;;1.63;77.95;100820.97;4943079;28;19926;-81
2024/01/22 02:52:13;;;;;;;;;;;;;;;1.62;78.13;100815.75;4943333;28;20017;-82
2024/01/22 02:54:39;;;;;;;;;;;;;;;1.66;78.10;100802.94;4942021;28;19935;-80
2024/01/22 02:57:06;;;;;;;;;;;;;;;1.55;78.63;100804.34;4946067;28;19934;-82
2024/01/22 02:59:36;;;;;;;;;;;;;;;1.55;78.73;100799.19;4945747;28;19933;-81
2024/01/22 03:02:03;;;;;;;;;;;;;;;1.50;79.02;100800.78;4940443;28;19934;-82
2024/01/22 03:04:30;;;;;;;;;;;;;;;1.68;78.56;100800.41;4936667;29;19926;-82
2024/01/22 03:06:56;;;;;;;;;;;;;;;1.57;78.88;100797.53;4943502;28;19930;-81
2024/01/22 03:09:24;;;;;;;;;;;;;;;1.58;79.36;100801.88;4942130;28;19962;-81
2024/01/22 03:11:51;;;;;;;;;;;;;;;1.68;79.69;100785.75;4949122;28;19927;-81
2024/01/22 03:14:18;;;;;;;;;;;;;;;1.69;79.83;100771.97;4945235;28;19930;-82
2024/01/22 03:16:45;;;;;;;;;;;;;;;1.81;79.54;100781.78;4954705;28;19938;-82
2024/01/22 03:19:11;;;;;;;;;;;;;;;1.84;79.75;100773.22;4942913;28;20018;-82
2024/01/22 03:21:38;;;;;;;;;;;;;;;1.93;79.80;100776.06;4947363;28;20393;-82
2024/01/22 03:24:05;;;;;;;;;;;;;;;1.99;80.00;100776.19;4939502;28;20014;-80
2024/01/22 03:26:32;;;;;;;;;;;;;;;2.12;79.67;100764.44;4952594;28;19930;-83
2024/01/22 03:28:59;;;;;;;;;;;;;;;2.31;79.32;100751.94;4929714;28;19927;-84
2024/01/22 03:31:26;;;;;;;;;;;;;;;2.49;78.80;100743.72;4932215;29;19941;-83
2024/01/22 03:33:53;;;;;;;;;;;;;;;2.66;77.92;100750.13;4933729;28;19927;-83
2024/01/22 03:36:20;;;;;;;;;;;;;;;2.72;77.22;100765.84;4944576;28;19984;-84
2024/01/22 03:38:47;;;;;;;;;;;;;;;2.92;77.04;100762.78;4935387;28;19985;-83
2024/01/22 03:41:14;;;;;;;;;;;;;;;2.97;76.74;100766.38;4950240;28;19958;-84
2024/01/22 03:43:44;;;;;;;;;;;;;;;3.09;76.40;100777.00;4930227;28;19934;-84
2024/01/22 03:46:11;;;;;;;;;;;;;;;3.37;75.30;100779.28;4939123;29;20027;-83
2024/01/22 03:48:37;;;;;;;;;;;;;;;3.25;75.69;100787.69;4947992;28;19933;-83
2024/01/22 03:51:04;;;;;;;;;;;;;;;3.35;75.33;100778.38;4947373;28;19926;-84
2024/01/22 03:53:31;;;;;;;;;;;;;;;3.41;74.95;100779.34;4956043;28;19926;-84
2024/01/22 03:55:58;;;;;;;;;;;;;;;3.37;75.36;100768.91;4926047;29;19966;-84
2024/01/22 03:58:25;;;;;;;;;;;;;;;3.62;74.35;100757.25;4944835;29;19937;-84
2024/01/22 04:00:51;;;;;;;;;;;;;;;3.33;75.02;100752.38;4946833;28;19933;-84
2024/01/22 04:03:18;;;;;;;;;;;;;;;3.38;74.83;100753.34;4954298;28;19927;-84
2024/01/22 04:05:45;;;;;;;;;;;;;;;3.42;74.42;100756.91;4953546;28;19927;-85
2024/01/22 04:08:12;;;;;;;;;;;;;;;3.47;74.43;100753.53;4949859;28;19938;-84
2024/01/22 04:10:38;;;;;;;;;;;;;;;3.63;73.89;100754.69;4944098;28;19930;-84
2024/01/22 04:13:05;;;;;;;;;;;;;;;3.65;73.83;100750.41;4954516;28;19926;-83
2024/01/22 04:15:32;;;;;;;;;;;;;;;3.76;73.16;100755.78;4948949;29;19927;-85
2024/01/22 04:17:59;;;;;;;;;;;;;;;3.77;73.31;100757.53;4945688;28;19945;-84
2024/01/22 04:20:26;;;;;;;;;;;;;;;3.90;72.78;100748.25;4918031;29;19935;-85
2024/01/22 04:22:52;;;;;;;;;;;;;;;3.76;72.93;100737.59;4952517;28;19946;-85
2024/01/22 04:25:19;;;;;;;;;;;;;;;3.42;73.93;100726.63;4938420;29;19933;-84
2024/01/22 04:27:46;;;;;;;;;;;;;;;3.54;73.38;100731.16;4943690;28;19949;-84
2024/01/22 04:30:12;;;;;;;;;;;;;;;3.51;73.32;100719.88;4952112;28;19933;-84
2024/01/22 04:32:39;;;;;;;;;;;;;;;3.45;73.62;100720.63;4930166;29;19926;-84
2024/01/22 04:35:07;;;;;;;;;;;;;;;3.59;73.01;100713.06;4949683;28;19934;-83
2024/01/22 04:37:34;;;;;;;;;;;;;;;3.55;73.02;100708.66;4951794;28;20006;-83
2024/01/22 04:40:10;;;;;;;;;;;;;;;3.61;73.07;100703.63;4954107;28;19931;-85
2024/01/22 04:42:37;;;;;;;;;;;;;;;3.70;72.29;100693.38;4918087;29;19926;-84
2024/01/22 04:45:04;;;;;;;;;;;;;;;3.49;72.85;100696.50;4952560;28;19937;-83
2024/01/22 04:47:31;;;;;;;;;;;;;;;3.74;72.11;100700.38;4927659;29;19989;-84
2024/01/22 04:49:57;;;;;;;;;;;;;;;3.64;72.35;100712.31;4943699;29;19926;-84
2024/01/22 04:52:24;;;;;;;;;;;;;;;3.62;72.04;100713.13;4950788;28;20040;-83
2024/01/22 04:54:50;;;;;;;;;;;;;;;3.56;72.12;100705.25;4949727;28;19937;-84
2024/01/22 04:57:24;;;;;;;;;;;;;;;3.47;71.97;100704.22;4956413;28;19957;-83
2024/01/22 04:59:51;;;;;;;;;;;;;;;3.48;71.81;100700.78;4952081;28;19937;-84
2024/01/22 05:02:22;;;;;;;;;;;;;;;3.42;71.63;100694.63;4944167;28;20030;-83
2024/01/22 05:04:49;;;;;;;;;;;;;;;3.35;71.61;100698.81;4936058;29;20453;-83
2024/01/22 05:07:16;;;;;;;;;;;;;;;3.33;71.25;100703.09;4939613;28;19942;-82
2024/01/22 05:09:43;;;;;;;;;;;;;;;3.22;71.56;100700.31;4944823;28;19933;-83
2024/01/22 05:12:09;;;;;;;;;;;;;;;3.12;71.74;100699.25;4951945;29;19927;-83
2024/01/22 05:14:40;;;;;;;;;;;;;;;3.10;71.64;100695.75;4930383;29;19926;-83
2024/01/22 05:17:07;;;;;;;;;;;;;;;3.09;71.64;100694.00;4954393;28;19930;-83
2024/01/22 05:19:34;;;;;;;;;;;;;;;3.17;71.11;100682.91;4951762;28;20029;-83
2024/01/22 05:22:00;;;;;;;;;;;;;;;3.05;71.39;100671.44;4952055;28;19927;-83
2024/01/22 05:24:27;;;;;;;;;;;;;;;3.05;71.18;100661.06;4951985;28;19927;-82
2024/01/22 05:26:54;;;;;;;;;;;;;;;3.19;70.58;100647.53;4949311;28;19926;-83
2024/01/22 05:29:21;;;;;;;;;;;;;;;3.20;70.41;100644.06;4934070;28;19934;-80
2024/01/22 05:31:47;;;;;;;;;;;;;;;3.29;69.92;100624.34;4946300;29;19926;-80
2024/01/22 05:34:14;;;;;;;;;;;;;;;3.33;69.62;100625.25;4949637;28;19926;-81
2024/01/22 05:36:42;;;;;;;;;;;;;;;3.26;69.88;100623.44;4944829;29;19977;-81
2024/01/22 05:39:09;;;;;;;;;;;;;;;3.24;69.85;100620.78;4947549;28;19951;-80
2024/01/22 05:41:36;;;;;;;;;;;;;;;3.27;69.61;100625.16;4947596;28;19938;-81
2024/01/22 05:44:03;;;;;;;;;;;;;;;3.12;70.46;100629.22;4950493;29;19945;-81
2024/01/22 05:46:30;;;;;;;;;;;;;;;3.06;70.33;100620.47;4942135;28;19926;-81
2024/01/22 05:48:56;;;;;;;;;;;;;;;3.10;70.03;100617.06;4945969;28;19926;-80
2024/01/22 05:51:23;;;;;;;;;;;;;;;3.16;70.05;100612.03;4919335;29;19981;-81
2024/01/22 05:53:50;;;;;;;;;;;;;;;3.11;70.19;100606.75;4951546;28;19981;-81
2024/01/22 05:56:20;;;;;;;;;;;;;;;3.05;70.24;100608.34;4948825;28;19933;-81
2024/01/22 05:58:48;;;;;;;;;;;;;;;3.18;69.80;100593.88;4947809;28;19934;-82
2024/01/22 06:01:18;;;;;;;;;;;;;;;3.06;70.19;100590.22;4949000;28;19926;-81
2024/01/22 06:03:45;;;;;;;;;;;;;;;3.07;70.00;100586.78;4934448;29;19932;-80
2024/01/22 06:06:12;;;;;;;;;;;;;;;3.06;70.15;100584.19;4951738;28;19934;-81
2024/01/22 06:08:42;;;;;;;;;;;;;;;3.04;70.23;100566.00;4944714;28;19933;-81
2024/01/22 06:11:10;;;;;;;;;;;;;;;3.22;69.44;100556.78;4950163;28;19930;-81
2024/01/22 06:13:39;;;;;;;;;;;;;;;3.11;69.93;100564.38;4959697;28;19927;-81
2024/01/22 06:16:26;;;;;;;;;;;;;;;3.18;69.71;100557.56;4949165;28;19950;-82
2024/01/22 06:18:53;;;;;;;;;;;;;;;3.29;69.12;100537.88;4951748;28;20302;-82
2024/01/22 06:21:20;;;;;;;;;;;;;;;3.29;68.94;100532.69;4943696;28;19926;-81
2024/01/22 06:23:47;;;;;;;;;;;;;;;3.30;69.13;100521.44;4927828;28;19926;-81
2024/01/22 06:26:15;;;;;;;;;;;;;;;3.20;69.37;100519.56;4935351;28;20007;-80
2024/01/22 06:28:42;;;;;;;;;;;;;;;3.26;69.01;100524.88;4941993;28;19938;-82
2024/01/22 06:31:09;;;;;;;;;;;;;;;3.34;68.82;100525.84;4942975;29;19981;-79
2024/01/22 06:33:36;;;;;;;;;;;;;;;3.35;68.59;100517.22;4944853;29;19926;-80
2024/01/22 06:36:03;;;;;;;;;;;;;;;3.40;68.43;100523.34;4948692;28;20378;-80
2024/01/22 06:38:30;;;;;;;;;;;;;;;3.30;68.68;100514.56;4949716;28;19926;-78
2024/01/22 06:40:57;;;;;;;;;;;;;;;3.44;68.12;100517.34;4945675;28;19926;-80
2024/01/22 06:43:23;;;;;;;;;;;;;;;3.46;68.12;100507.88;4955334;28;19934;-80
2024/01/22 06:45:50;;;;;;;;;;;;;;;3.65;67.41;100505.56;4950160;29;19930;-81
2024/01/22 06:48:16;;;;;;;;;;;;;;;3.67;67.22;100501.25;4943720;28;19927;-81
2024/01/22 06:50:43;;;;;;;;;;;;;;;3.50;67.89;100487.16;4959854;28;19962;-80
2024/01/22 06:53:11;;;;;;;;;;;;;;;3.45;68.48;100484.50;4948792;29;19926;-81
2024/01/22 06:55:37;;;;;;;;;;;;;;;3.61;67.73;100485.59;4947650;28;19927;-79
2024/01/22 06:58:04;;;;;;;;;;;;;;;3.60;67.65;100486.44;4925064;29;19942;-81
2024/01/22 07:00:32;;;;;;;;;;;;;;;3.65;67.21;100479.63;4944157;29;20454;-81
2024/01/22 07:02:59;;;;;;;;;;;;;;;3.66;67.61;100476.16;4946904;28;19954;-83
2024/01/22 07:05:26;;;;;;;;;;;;;;;3.70;67.08;100475.34;4946170;28;19934;-82
2024/01/22 07:07:54;;;;;;;;;;;;;;;3.70;67.14;100475.34;4954052;28;19930;-82
2024/01/22 07:10:21;;;;;;;;;;;;;;;3.71;67.18;100482.28;4951640;28;19935;-83
2024/01/22 07:12:47;;;;;;;;;;;;;;;3.65;67.51;100471.81;4933370;29;20283;-82
2024/01/22 07:15:14;;;;;;;;;;;;;;;3.59;68.10;100467.41;4952085;28;19927;-85
2024/01/22 07:17:42;;;;;;;;;;;;;;;3.59;68.47;100469.13;4952008;28;20046;-83
2024/01/22 07:20:13;;;;;;;;;;;;;;;3.56;68.99;100474.28;4956192;28;19926;-82
2024/01/22 07:22:41;;;;;;;;;;;;;;;3.39;70.29;100480.09;4946147;28;20009;-82
2024/01/22 07:25:12;;;;;;;;;;;;;;;3.45;70.65;100477.59;4947203;28;19980;-82
2024/01/22 07:27:39;;;;;;;;;;;;;;;3.45;71.06;100494.91;4951038;28;19936;-82
2024/01/22 07:30:08;;;;;;;;;;;;;;;3.38;71.83;100480.94;4939704;28;19934;-84
2024/01/22 07:32:36;;;;;;;;;;;;;;;3.35;71.96;100478.31;4946583;28;20038;-83
2024/01/22 07:35:07;;;;;;;;;;;;;;;3.46;72.08;100481.94;4957454;28;19930;-81
2024/01/22 07:37:37;;;;;;;;;;;;;;;3.44;72.51;100473.25;4958251;28;19926;-82
2024/01/22 07:40:09;;;;;;;;;;;;;;;3.33;73.27;100486.91;4955010;28;19933;-84
2024/01/22 07:42:36;;;;;;;;;;;;;;;3.48;72.87;100480.22;4932955;28;19986;-85
2024/01/22 07:45:03;;;;;;;;;;;;;;;3.37;73.05;100486.97;4957847;28;19935;-82
2024/01/22 07:47:30;;;;;;;;;;;;;;;3.51;72.69;100492.38;4935081;29;19926;-82
2024/01/22 07:49:58;;;;;;;;;;;;;;;3.62;72.31;100484.72;4947697;28;19972;-84
2024/01/22 07:52:24;;;;;;;;;;;;;;;3.58;72.11;100491.63;4953191;28;19934;-84
2024/01/22 07:54:51;;;;;;;;;;;;;;;3.63;72.30;100489.94;4949451;28;19937;-87
2024/01/22 07:57:18;;;;;;;;;;;;;;;3.68;72.97;100499.53;4948563;28;19936;-85
2024/01/22 07:59:45;;;;;;;;;;;;;;;3.59;73.51;100495.06;4948322;28;19949;-85
2024/01/22 08:02:11;;;;;;;;;;;;;;;3.52;73.64;100501.03;4945649;28;19935;-85
2024/01/22 08:04:39;;;;;;;;;;;;;;;3.64;73.79;100521.97;4930303;29;20026;-85
2024/01/22 08:07:06;;;;;;;;;;;;;;;3.44;75.90;100506.97;4948800;28;19926;-86
2024/01/22 08:09:33;;;;;;;;;;;;;;;3.40;76.19;100515.56;4958871;28;19937;-85
2024/01/22 08:12:00;;;;;;;;;;;;;;;3.29;77.44;100506.75;4947594;28;19938;-85
2024/01/22 08:14:27;;;;;;;;;;;;;;;3.27;78.55;100517.13;4951370;28;19930;-84
2024/01/22 08:16:54;;;;;;;;;;;;;;;3.21;79.62;100523.91;4951995;28;19930;-84
2024/01/22 08:19:20;;;;;;;;;;;;;;;3.13;80.61;100519.47;4950999;28;19974;-85
2024/01/22 08:21:48;;;;;;;;;;;;;;;3.10;81.47;100514.22;4953208;28;19926;-87
2024/01/22 08:24:15;;;;;;;;;;;;;;;3.04;82.63;100524.50;4955618;28;19930;-85
2024/01/22 08:26:42;;;;;;;;;;;;;;;2.91;83.70;100522.53;4953281;28;20325;-84
2024/01/22 08:29:08;;;;;;;;;;;;;;;2.84;84.68;100525.88;4955011;28;19927;-86
2024/01/22 08:31:35;;;;;;;;;;;;;;;2.81;85.35;100518.03;4952234;28;19927;-85
2024/01/22 08:34:03;;;;;;;;;;;;;;;2.74;86.31;100519.66;4933535;28;19955;-84
2024/01/22 08:36:30;;;;;;;;;;;;;;;2.74;87.15;100538.66;4933773;28;20003;-84
2024/01/22 08:38:56;;;;;;;;;;;;;;;2.76;87.14;100539.56;4956488;28;19949;-87
2024/01/22 08:41:26;;;;;;;;;;;;;;;2.76;87.62;100539.56;4956338;28;19938;-85
2024/01/22 08:43:57;;;;;;;;;;;;;;;2.80;88.02;100540.50;4954121;28;19934;-85
2024/01/22 08:46:25;;;;;;;;;;;;;;;2.84;88.28;100536.22;4947046;28;19933;-85
2024/01/22 08:48:52;;;;;;;;;;;;;;;2.93;88.48;100546.78;4944669;28;20001;-86
2024/01/22 08:51:19;;;;;;;;;;;;;;;2.84;88.78;100546.59;4947268;28;20027;-84
2024/01/22 08:53:45;;;;;;;;;;;;;;;2.85;88.82;100535.41;4949972;28;19982;-85
2024/01/22 08:56:13;;;;;;;;;;;;;;;2.95;88.91;100550.25;4948823;28;19931;-85
2024/01/22 08:58:40;;;;;;;;;;;;;;;3.02;88.56;100535.69;4951340;28;19933;-83
2024/01/22 09:01:07;;;;;;;;;;;;;;;3.00;88.74;100522.72;4954523;28;19981;-86
2024/01/22 09:03:36;;;;;;;;;;;;;;;3.07;88.72;100529.75;4952696;28;19982;-84
2024/01/22 09:06:05;;;;;;;;;;;;;;;3.10;88.83;100532.38;4949775;28;19930;-84
2024/01/22 09:08:34;;;;;;;;;;;;;;;3.08;88.73;100521.09;4954755;28;19927;-85
2024/01/22 09:11:02;;;;;;;;;;;;;;;3.15;88.71;100522.09;4952563;28;19933;-84
2024/01/22 09:13:29;;;;;;;;;;;;;;;3.10;88.83;100524.59;4951366;28;19926;-86
2024/01/22 09:15:57;;;;;;;;;;;;;;;3.12;89.30;100509.94;4948462;28;20279;-85
2024/01/22 09:18:24;;;;;;;;;;;;;;;3.22;89.59;100512.69;4949507;28;19937;-84
2024/01/22 09:20:52;;;;;;;;;;;;;;;3.21;89.52;100508.34;4948881;28;20378;-86
2024/01/22 09:23:18;;;;;;;;;;;;;;;3.23;89.44;100504.03;4948981;28;19963;-84
2024/01/22 09:25:45;;;;;;;;;;;;;;;3.17;89.67;100501.38;4952904;28;19927;-85
2024/01/22 09:28:14;;;;;;;;;;;;;;;3.16;89.54;100507.38;4941985;28;19985;-86
2024/01/22 09:30:41;;;;;;;;;;;;;;;3.24;89.70;100490.22;4956207;28;19972;-85
2024/01/22 09:33:09;;;;;;;;;;;;;;;3.25;90.19;100481.63;4917011;29;19931;-84
2024/01/22 09:35:40;;;;;;;;;;;;;;;3.29;89.66;100486.00;4930420;28;19926;-86
2024/01/22 09:38:07;;;;;;;;;;;;;;;3.36;89.70;100484.34;4942006;28;20367;-86
2024/01/22 09:40:34;;;;;;;;;;;;;;;3.36;89.46;100480.06;4947547;28;19937;-85
2024/01/22 09:43:04;;;;;;;;;;;;;;;3.37;89.31;100479.19;4946839;28;19999;-87
2024/01/22 09:45:34;;;;;;;;;;;;;;;3.38;89.36;100473.16;4947784;28;20012;-85
2024/01/22 09:48:01;;;;;;;;;;;;;;;3.36;89.45;100466.19;4949378;28;19926;-87
2024/01/22 09:50:28;;;;;;;;;;;;;;;3.42;89.34;100477.56;4943797;28;19937;-87
2024/01/22 09:52:57;;;;;;;;;;;;;;;3.56;89.26;100471.69;4950005;28;20300;-86
2024/01/22 09:55:24;;;;;;;;;;;;;;;3.54;89.10;100458.69;4945371;28;19937;-87
2024/01/22 09:57:54;;;;;;;;;;;;;;;3.50;89.02;100450.84;4943540;28;19983;-91
2024/01/22 10:00:26;;;;;;;;;;;;;;;3.63;89.29;100450.16;4927963;29;19961;-88
2024/01/22 10:02:55;;;;;;;;;;;;;;;3.66;89.40;100442.41;4954102;28;19926;-86
2024/01/22 10:05:22;;;;;;;;;;;;;;;3.67;89.22;100440.69;4919524;28;19965;-85
2024/01/22 10:07:49;;;;;;;;;;;;;;;3.76;88.68;100444.25;4953257;28;20011;-86
2024/01/22 10:10:17;;;;;;;;;;;;;;;3.72;88.68;100442.50;4949637;29;20019;-86
2024/01/22 10:13:18;;;;;;;;;;;;;;;3.92;88.52;100445.31;4926989;28;19933;-85
2024/01/22 10:15:45;;;;;;;;;;;;;;;3.91;88.65;100433.22;4913708;29;19926;-85
2024/01/22 10:18:14;;;;;;;;;;;;;;;3.88;88.80;100438.38;4931505;29;19933;-85
2024/01/22 10:20:42;;;;;;;;;;;;;;;3.93;89.33;100433.25;4944923;28;19926;-88
2024/01/22 10:23:10;;;;;;;;;;;;;;;3.89;89.30;100444.44;4948418;28;19933;-88
2024/01/22 10:25:37;;;;;;;;;;;;;;;3.99;89.39;100425.50;4944685;28;19927;-85
2024/01/22 10:28:10;;;;;;;;;;;;;;;4.08;89.44;100428.19;4956546;28;19926;-86
2024/01/22 10:30:41;;;;;;;;;;;;;;;4.11;89.70;100430.84;4928088;29;19974;-86
2024/01/22 10:33:18;;;;;;;;;;;;;;;4.16;90.15;100426.56;4949711;28;19927;-86
2024/01/22 10:35:47;;;;;;;;;;;;;;;4.29;90.50;100414.59;4949995;28;19927;-85
2024/01/22 10:38:16;;;;;;;;;;;;;;;4.35;90.71;100412.03;4951321;28;19930;-85
2024/01/22 10:40:44;;;;;;;;;;;;;;;4.43;90.67;100424.22;4954067;28;20017;-85
2024/01/22 10:43:18;;;;;;;;;;;;;;;4.52;90.89;100404.41;4951323;28;19926;-84
2024/01/22 10:45:46;;;;;;;;;;;;;;;4.58;91.10;100410.53;4941661;29;19927;-86
2024/01/22 10:48:15;;;;;;;;;;;;;;;4.66;91.26;100407.16;4952618;28;19927;-85
2024/01/22 10:50:57;;;;;;;;;;;;;;;4.51;91.24;100389.66;4952353;28;19933;-87
2024/01/22 10:53:24;;;;;;;;;;;;;;;4.60;91.47;100382.81;4934112;28;19934;-87
2024/01/22 10:56:00;;;;;;;;;;;;;;;4.73;91.57;100383.78;4923354;29;19927;-86
2024/01/22 11:00:12;;;;;;;;;;;;;;;4.86;91.59;100365.66;5047916;27;19929;-86
2024/01/22 11:02:39;;;;;;;;;;;;;;;4.93;91.49;100361.41;5050826;27;19932;-86
2024/01/22 11:05:13;;;;;;;;;;;;;;;5.05;91.57;100352.78;5032542;28;19933;-86
2024/01/22 11:07:41;;;;;;;;;;;;;;;5.16;91.31;100342.47;5042776;28;19948;-84
2024/01/22 11:10:09;;;;;;;;;;;;;;;5.28;91.10;100337.31;5022221;28;20008;-88
2024/01/22 11:12:46;;;;;;;;;;;;;;;5.35;91.04;100338.22;5027672;28;19994;-86
2024/01/22 11:15:13;;;;;;;;;;;;;;;5.34;90.97;100321.72;5028088;28;19930;-85
2024/01/22 11:17:39;;;;;;;;;;;;;;;5.30;90.93;100324.31;5037612;28;19929;-85
2024/01/22 11:20:13;;;;;;;;;;;;;;;5.53;90.55;100322.69;5039499;28;19925;-86
2024/01/22 11:22:39;;;;;;;;;;;;;;;5.62;90.44;100323.56;5037298;28;19925;-85
2024/01/22 11:25:12;;;;;;;;;;;;;;;5.67;90.18;100321.88;5050773;28;19957;-86
2024/01/22 11:27:41;;;;;;;;;;;;;;;5.65;89.75;100331.38;5039590;28;20036;-87
2024/01/22 11:30:21;;;;;;;;;;;;;;;5.67;89.66;100316.66;5034600;28;19925;-88
2024/01/22 11:32:48;;;;;;;;;;;;;;;5.69;89.87;100323.63;5042630;28;19932;-86
2024/01/22 11:35:33;;;;;;;;;;;;;;;5.70;90.03;100324.47;5028712;28;19956;-86
2024/01/22 11:38:01;;;;;;;;;;;;;;;5.72;90.34;100312.31;5025645;28;20003;-85
2024/01/22 11:40:47;;;;;;;;;;;;;;;5.66;90.69;100317.50;5039719;28;19933;-85
2024/01/22 11:43:15;;;;;;;;;;;;;;;5.62;90.78;100305.34;5025983;28;19932;-86
2024/01/22 11:45:42;;;;;;;;;;;;;;;5.72;90.68;100312.31;5031598;28;19943;-87
2024/01/22 11:48:20;;;;;;;;;;;;;;;5.71;90.85;100310.59;5020345;28;19930;-86
2024/01/22 11:51:06;;;;;;;;;;;;;;;5.82;90.79;100300.19;5019430;27;20400;-86
2024/01/22 11:53:49;;;;;;;;;;;;;;;5.80;90.73;100304.53;5017341;28;20412;-85
2024/01/22 11:56:16;;;;;;;;;;;;;;;5.78;90.83;100312.34;5032105;28;19990;-86
2024/01/22 11:58:42;;;;;;;;;;;;;;;5.68;91.01;100308.84;5032962;28;19925;-87
2024/01/22 12:01:09;;;;;;;;;;;;;;;5.75;91.55;100292.38;5046170;28;20044;-85
2024/01/22 12:03:37;;;;;;;;;;;;;;;5.77;91.75;100279.34;5062884;28;19924;-85
2024/01/22 12:06:05;;;;;;;;;;;;;;;5.65;91.68;100280.19;5033372;28;19926;-86
2024/01/22 12:08:32;;;;;;;;;;;;;;;5.70;91.81;100277.59;5046698;28;19925;-86
2024/01/22 12:11:08;;;;;;;;;;;;;;;5.99;91.63;100269.00;5046721;28;20018;-85
2024/01/22 12:13:39;;;;;;;;;;;;;;;5.90;91.37;100275.91;5038131;28;19925;-88
2024/01/22 12:16:16;;;;;;;;;;;;;;;5.89;91.28;100252.47;5043303;28;19935;-86
2024/01/22 12:18:43;;;;;;;;;;;;;;;5.91;91.40;100277.66;5049279;28;19924;-86
2024/01/22 12:21:11;;;;;;;;;;;;;;;6.51;89.60;100255.97;5041245;28;19935;-88
2024/01/22 12:23:39;;;;;;;;;;;;;;;6.73;88.19;100232.44;5039536;28;19964;-85
2024/01/22 12:26:20;;;;;;;;;;;;;;;7.04;87.39;100221.91;5043211;28;20288;-86
2024/01/22 12:28:53;;;;;;;;;;;;;;;7.46;85.34;100251.31;5038371;28;19925;-86
2024/01/22 12:31:35;;;;;;;;;;;;;;;7.88;82.82;100228.41;5043016;28;19935;-85
2024/01/22 12:34:08;;;;;;;;;;;;;;;8.42;80.12;100219.25;5037232;28;19985;-86
2024/01/22 12:36:43;;;;;;;;;;;;;;;8.63;78.96;100228.63;5024697;28;19936;-87
2024/01/22 12:39:11;;;;;;;;;;;;;;;8.82;77.71;100229.28;5008489;28;20016;-87
2024/01/22 12:41:38;;;;;;;;;;;;;;;8.75;78.14;100217.16;5031605;28;19925;-85
2024/01/22 12:44:06;;;;;;;;;;;;;;;8.80;77.30;100195.31;5020282;28;19937;-86
2024/01/22 12:46:38;;;;;;;;;;;;;;;8.85;77.14;100188.28;5009454;28;20169;-87
2024/01/22 12:49:05;;;;;;;;;;;;;;;8.96;76.79;100201.22;5026777;28;19931;-87
2024/01/22 12:51:33;;;;;;;;;;;;;;;9.14;75.21;100210.63;5033940;28;19928;-86
2024/01/22 12:54:00;;;;;;;;;;;;;;;9.29;74.59;100211.28;5040945;28;19929;-87